sensor_id;sensor_type;location;lat;lon;timestamp;P1;durP1;ratioP1;P2;durP2;ratioP2
21095;SDS011;10706;49.036;12.112;2024-03-02T00:01:14;45.17;;;18.43;;
21095;SDS011;10706;49.036;12.112;2024-03-02T00:03:40;53.93;;;20.37;;
21095;SDS011;10706;49.036;12.112;2024-03-02T00:06:08;47.03;;;18.47;;
21095;SDS011;10706;49.036;12.112;2024-03-02T00:08:35;53.73;;;19.83;;
21095;SDS011;10706;49.036;12.112;2024-03-02T00:11:01;64.47;;;20.23;;
21095;SDS011;10706;49.036;12.112;2024-03-02T00:13:30;43.70;;;17.60;;
21095;SDS011;10706;49.036;12.112;2024-03-02T00:15:57;50.37;;;18.43;;
21095;SDS011;10706;49.036;12.112;2024-03-02T00:18:33;50.03;;;18.93;;
21095;SDS011;10706;49.036;12.112;2024-03-02T00:21:00;60.90;;;19.83;;
21095;SDS011;10706;49.036;12.112;2024-03-02T00:23:30;50.00;;;18.50;;
21095;SDS011;10706;49.036;12.112;2024-03-02T00:25:56;46.57;;;18.60;;
21095;SDS011;10706;49.036;12.112;2024-03-02T00:28:27;44.73;;;17.60;;
21095;SDS011;10706;49.036;12.112;2024-03-02T00:33:34;47.03;;;17.07;;
21095;SDS011;10706;49.036;12.112;2024-03-02T00:36:02;41.10;;;17.57;;
21095;SDS011;10706;49.036;12.112;2024-03-02T00:38:30;47.30;;;19.63;;
21095;SDS011;10706;49.036;12.112;2024-03-02T00:41:00;41.90;;;16.53;;
21095;SDS011;10706;49.036;12.112;2024-03-02T00:46:37;44.73;;;17.37;;
21095;SDS011;10706;49.036;12.112;2024-03-02T00:49:05;35.77;;;15.60;;
21095;SDS011;10706;49.036;12.112;2024-03-02T00:51:32;43.87;;;16.93;;
21095;SDS011;10706;49.036;12.112;2024-03-02T00:54:00;54.07;;;19.10;;
21095;SDS011;10706;49.036;12.112;2024-03-02T00:56:33;47.53;;;18.17;;
21095;SDS011;10706;49.036;12.112;2024-03-02T00:58:59;47.23;;;17.53;;
21095;SDS011;10706;49.036;12.112;2024-03-02T01:01:26;43.37;;;16.10;;
21095;SDS011;10706;49.036;12.112;2024-03-02T01:03:52;45.87;;;17.07;;
21095;SDS011;10706;49.036;12.112;2024-03-02T01:06:18;49.07;;;18.67;;
21095;SDS011;10706;49.036;12.112;2024-03-02T01:08:44;48.17;;;16.83;;
21095;SDS011;10706;49.036;12.112;2024-03-02T01:11:12;47.57;;;17.43;;
21095;SDS011;10706;49.036;12.112;2024-03-02T01:13:38;42.63;;;16.70;;
21095;SDS011;10706;49.036;12.112;2024-03-02T01:16:04;41.43;;;16.30;;
21095;SDS011;10706;49.036;12.112;2024-03-02T01:18:30;43.37;;;15.57;;
21095;SDS011;10706;49.036;12.112;2024-03-02T01:20:56;38.50;;;16.17;;
21095;SDS011;10706;49.036;12.112;2024-03-02T01:23:22;36.57;;;14.50;;
21095;SDS011;10706;49.036;12.112;2024-03-02T01:25:49;42.60;;;16.60;;
21095;SDS011;10706;49.036;12.112;2024-03-02T01:28:16;40.40;;;16.33;;
21095;SDS011;10706;49.036;12.112;2024-03-02T01:30:43;48.83;;;18.07;;
21095;SDS011;10706;49.036;12.112;2024-03-02T01:33:10;46.50;;;17.00;;
21095;SDS011;10706;49.036;12.112;2024-03-02T01:35:36;40.67;;;16.13;;
21095;SDS011;10706;49.036;12.112;2024-03-02T01:38:02;50.80;;;16.80;;
21095;SDS011;10706;49.036;12.112;2024-03-02T01:40:30;39.13;;;15.93;;
21095;SDS011;10706;49.036;12.112;2024-03-02T01:42:57;44.50;;;15.43;;
21095;SDS011;10706;49.036;12.112;2024-03-02T01:45:23;45.97;;;16.70;;
21095;SDS011;10706;49.036;12.112;2024-03-02T01:47:50;48.60;;;17.93;;
21095;SDS011;10706;49.036;12.112;2024-03-02T01:50:24;43.17;;;16.53;;
21095;SDS011;10706;49.036;12.112;2024-03-02T01:53:08;46.23;;;16.80;;
21095;SDS011;10706;49.036;12.112;2024-03-02T01:55:35;45.53;;;17.73;;
21095;SDS011;10706;49.036;12.112;2024-03-02T01:58:20;49.50;;;18.17;;
21095;SDS011;10706;49.036;12.112;2024-03-02T02:00:46;48.63;;;18.10;;
21095;SDS011;10706;49.036;12.112;2024-03-02T02:03:12;41.33;;;16.87;;
21095;SDS011;10706;49.036;12.112;2024-03-02T02:05:39;54.93;;;17.60;;
21095;SDS011;10706;49.036;12.112;2024-03-02T02:08:07;49.03;;;17.90;;
21095;SDS011;10706;49.036;12.112;2024-03-02T02:10:33;43.67;;;17.37;;
21095;SDS011;10706;49.036;12.112;2024-03-02T02:12:59;56.83;;;19.23;;
21095;SDS011;10706;49.036;12.112;2024-03-02T02:15:26;58.00;;;19.83;;
21095;SDS011;10706;49.036;12.112;2024-03-02T02:17:53;52.30;;;20.53;;
21095;SDS011;10706;49.036;12.112;2024-03-02T02:20:20;51.67;;;19.80;;
21095;SDS011;10706;49.036;12.112;2024-03-02T02:23:20;54.03;;;18.10;;
21095;SDS011;10706;49.036;12.112;2024-03-02T02:25:39;52.60;;;19.57;;
21095;SDS011;10706;49.036;12.112;2024-03-02T02:28:05;53.53;;;20.07;;
21095;SDS011;10706;49.036;12.112;2024-03-02T02:30:31;60.90;;;19.10;;
21095;SDS011;10706;49.036;12.112;2024-03-02T02:32:58;51.87;;;18.97;;
21095;SDS011;10706;49.036;12.112;2024-03-02T02:35:24;60.30;;;20.23;;
21095;SDS011;10706;49.036;12.112;2024-03-02T02:37:50;60.53;;;20.13;;
21095;SDS011;10706;49.036;12.112;2024-03-02T02:40:17;63.73;;;22.03;;
21095;SDS011;10706;49.036;12.112;2024-03-02T02:42:46;61.77;;;20.37;;
21095;SDS011;10706;49.036;12.112;2024-03-02T02:45:12;62.67;;;19.90;;
21095;SDS011;10706;49.036;12.112;2024-03-02T02:47:39;58.83;;;21.17;;
21095;SDS011;10706;49.036;12.112;2024-03-02T02:50:09;58.90;;;20.47;;
21095;SDS011;10706;49.036;12.112;2024-03-02T02:52:37;67.03;;;22.40;;
21095;SDS011;10706;49.036;12.112;2024-03-02T02:55:06;60.37;;;21.03;;
21095;SDS011;10706;49.036;12.112;2024-03-02T02:57:34;57.60;;;20.83;;
21095;SDS011;10706;49.036;12.112;2024-03-02T03:00:13;56.30;;;20.57;;
21095;SDS011;10706;49.036;12.112;2024-03-02T03:02:41;55.40;;;19.97;;
21095;SDS011;10706;49.036;12.112;2024-03-02T03:05:11;56.80;;;19.80;;
21095;SDS011;10706;49.036;12.112;2024-03-02T03:07:39;59.40;;;19.70;;
21095;SDS011;10706;49.036;12.112;2024-03-02T03:10:05;61.43;;;21.67;;
21095;SDS011;10706;49.036;12.112;2024-03-02T03:12:32;67.83;;;22.83;;
21095;SDS011;10706;49.036;12.112;2024-03-02T03:14:59;67.63;;;23.87;;
21095;SDS011;10706;49.036;12.112;2024-03-02T03:17:25;57.47;;;22.57;;
21095;SDS011;10706;49.036;12.112;2024-03-02T03:19:52;63.10;;;23.07;;
21095;SDS011;10706;49.036;12.112;2024-03-02T03:22:18;58.87;;;21.87;;
21095;SDS011;10706;49.036;12.112;2024-03-02T03:24:44;71.23;;;23.80;;
21095;SDS011;10706;49.036;12.112;2024-03-02T03:27:10;65.63;;;22.33;;
21095;SDS011;10706;49.036;12.112;2024-03-02T03:29:36;61.87;;;20.47;;
21095;SDS011;10706;49.036;12.112;2024-03-02T03:32:03;63.37;;;20.53;;
21095;SDS011;10706;49.036;12.112;2024-03-02T03:34:32;55.07;;;19.97;;
21095;SDS011;10706;49.036;12.112;2024-03-02T03:36:58;61.80;;;21.17;;
21095;SDS011;10706;49.036;12.112;2024-03-02T03:39:24;65.83;;;22.03;;
21095;SDS011;10706;49.036;12.112;2024-03-02T03:41:50;58.93;;;23.00;;
21095;SDS011;10706;49.036;12.112;2024-03-02T03:44:16;60.67;;;19.47;;
21095;SDS011;10706;49.036;12.112;2024-03-02T03:46:42;63.13;;;22.57;;
21095;SDS011;10706;49.036;12.112;2024-03-02T03:49:08;68.83;;;22.93;;
21095;SDS011;10706;49.036;12.112;2024-03-02T03:51:34;59.23;;;20.93;;
21095;SDS011;10706;49.036;12.112;2024-03-02T03:54:01;68.67;;;23.73;;
21095;SDS011;10706;49.036;12.112;2024-03-02T03:56:27;66.53;;;22.60;;
21095;SDS011;10706;49.036;12.112;2024-03-02T03:58:53;65.23;;;22.10;;
21095;SDS011;10706;49.036;12.112;2024-03-02T04:01:19;65.13;;;22.27;;
21095;SDS011;10706;49.036;12.112;2024-03-02T04:03:47;64.90;;;22.53;;
21095;SDS011;10706;49.036;12.112;2024-03-02T04:06:13;70.77;;;22.93;;
21095;SDS011;10706;49.036;12.112;2024-03-02T04:08:39;60.30;;;23.03;;
21095;SDS011;10706;49.036;12.112;2024-03-02T04:11:06;65.73;;;22.50;;
21095;SDS011;10706;49.036;12.112;2024-03-02T04:13:32;61.53;;;22.20;;
21095;SDS011;10706;49.036;12.112;2024-03-02T04:15:58;57.50;;;19.80;;
21095;SDS011;10706;49.036;12.112;2024-03-02T04:18:24;60.43;;;20.93;;
21095;SDS011;10706;49.036;12.112;2024-03-02T04:20:50;61.97;;;22.00;;
21095;SDS011;10706;49.036;12.112;2024-03-02T04:23:16;68.40;;;21.40;;
21095;SDS011;10706;49.036;12.112;2024-03-02T04:25:42;58.23;;;21.67;;
21095;SDS011;10706;49.036;12.112;2024-03-02T04:28:08;66.10;;;22.50;;
21095;SDS011;10706;49.036;12.112;2024-03-02T04:30:33;59.13;;;21.57;;
21095;SDS011;10706;49.036;12.112;2024-03-02T04:32:59;70.20;;;21.93;;
21095;SDS011;10706;49.036;12.112;2024-03-02T04:35:27;63.40;;;21.30;;
21095;SDS011;10706;49.036;12.112;2024-03-02T04:37:53;64.40;;;21.00;;
21095;SDS011;10706;49.036;12.112;2024-03-02T04:40:19;60.03;;;21.83;;
21095;SDS011;10706;49.036;12.112;2024-03-02T04:42:45;56.60;;;20.47;;
21095;SDS011;10706;49.036;12.112;2024-03-02T04:45:11;67.13;;;21.90;;
21095;SDS011;10706;49.036;12.112;2024-03-02T04:47:37;61.53;;;21.23;;
21095;SDS011;10706;49.036;12.112;2024-03-02T04:50:03;62.83;;;21.83;;
21095;SDS011;10706;49.036;12.112;2024-03-02T04:52:30;60.00;;;22.10;;
21095;SDS011;10706;49.036;12.112;2024-03-02T04:54:56;68.87;;;21.20;;
21095;SDS011;10706;49.036;12.112;2024-03-02T04:57:40;62.40;;;21.90;;
21095;SDS011;10706;49.036;12.112;2024-03-02T05:00:07;60.07;;;21.13;;
21095;SDS011;10706;49.036;12.112;2024-03-02T05:02:34;56.73;;;20.83;;
21095;SDS011;10706;49.036;12.112;2024-03-02T05:05:00;55.97;;;20.37;;
21095;SDS011;10706;49.036;12.112;2024-03-02T05:07:26;58.70;;;22.77;;
21095;SDS011;10706;49.036;12.112;2024-03-02T05:09:52;61.43;;;22.40;;
21095;SDS011;10706;49.036;12.112;2024-03-02T05:12:17;65.73;;;22.93;;
21095;SDS011;10706;49.036;12.112;2024-03-02T05:15:01;62.87;;;21.57;;
21095;SDS011;10706;49.036;12.112;2024-03-02T05:17:28;59.07;;;19.67;;
21095;SDS011;10706;49.036;12.112;2024-03-02T05:19:54;66.67;;;22.10;;
21095;SDS011;10706;49.036;12.112;2024-03-02T05:22:19;66.20;;;21.83;;
21095;SDS011;10706;49.036;12.112;2024-03-02T05:24:45;55.47;;;21.13;;
21095;SDS011;10706;49.036;12.112;2024-03-02T05:27:11;54.63;;;20.80;;
21095;SDS011;10706;49.036;12.112;2024-03-02T05:29:37;65.17;;;22.03;;
21095;SDS011;10706;49.036;12.112;2024-03-02T05:32:02;56.23;;;20.43;;
21095;SDS011;10706;49.036;12.112;2024-03-02T05:34:28;60.37;;;20.77;;
21095;SDS011;10706;49.036;12.112;2024-03-02T05:36:55;54.10;;;19.87;;
21095;SDS011;10706;49.036;12.112;2024-03-02T05:39:22;48.43;;;20.23;;
21095;SDS011;10706;49.036;12.112;2024-03-02T05:41:49;58.47;;;21.40;;
21095;SDS011;10706;49.036;12.112;2024-03-02T05:44:14;62.13;;;21.70;;
21095;SDS011;10706;49.036;12.112;2024-03-02T05:46:41;55.43;;;20.93;;
21095;SDS011;10706;49.036;12.112;2024-03-02T05:49:07;57.27;;;22.77;;
21095;SDS011;10706;49.036;12.112;2024-03-02T05:51:34;60.37;;;23.47;;
21095;SDS011;10706;49.036;12.112;2024-03-02T05:54:00;56.50;;;21.70;;
21095;SDS011;10706;49.036;12.112;2024-03-02T05:56:26;60.57;;;21.40;;
21095;SDS011;10706;49.036;12.112;2024-03-02T05:58:52;58.07;;;21.07;;
21095;SDS011;10706;49.036;12.112;2024-03-02T06:01:41;57.07;;;21.27;;
21095;SDS011;10706;49.036;12.112;2024-03-02T06:04:09;59.50;;;23.00;;
21095;SDS011;10706;49.036;12.112;2024-03-02T06:06:38;56.33;;;21.93;;
21095;SDS011;10706;49.036;12.112;2024-03-02T06:09:05;57.37;;;20.43;;
21095;SDS011;10706;49.036;12.112;2024-03-02T06:11:37;57.07;;;21.30;;
21095;SDS011;10706;49.036;12.112;2024-03-02T06:14:04;61.80;;;20.77;;
21095;SDS011;10706;49.036;12.112;2024-03-02T06:16:32;58.43;;;20.30;;
21095;SDS011;10706;49.036;12.112;2024-03-02T06:18:58;60.90;;;21.03;;
21095;SDS011;10706;49.036;12.112;2024-03-02T06:21:25;60.60;;;21.57;;
21095;SDS011;10706;49.036;12.112;2024-03-02T06:23:51;64.07;;;23.13;;
21095;SDS011;10706;49.036;12.112;2024-03-02T06:26:18;65.27;;;22.10;;
21095;SDS011;10706;49.036;12.112;2024-03-02T06:28:44;58.10;;;22.53;;
21095;SDS011;10706;49.036;12.112;2024-03-02T06:31:10;62.10;;;22.77;;
21095;SDS011;10706;49.036;12.112;2024-03-02T06:33:36;58.17;;;21.40;;
21095;SDS011;10706;49.036;12.112;2024-03-02T06:36:03;70.87;;;23.87;;
21095;SDS011;10706;49.036;12.112;2024-03-02T06:38:29;56.93;;;21.87;;
21095;SDS011;10706;49.036;12.112;2024-03-02T06:40:58;65.97;;;20.93;;
21095;SDS011;10706;49.036;12.112;2024-03-02T06:43:24;53.10;;;20.07;;
21095;SDS011;10706;49.036;12.112;2024-03-02T06:45:51;65.67;;;24.37;;
21095;SDS011;10706;49.036;12.112;2024-03-02T06:48:17;66.87;;;23.37;;
21095;SDS011;10706;49.036;12.112;2024-03-02T06:50:48;64.33;;;21.47;;
21095;SDS011;10706;49.036;12.112;2024-03-02T06:53:15;69.90;;;23.90;;
21095;SDS011;10706;49.036;12.112;2024-03-02T06:55:45;61.87;;;23.30;;
21095;SDS011;10706;49.036;12.112;2024-03-02T06:58:11;60.27;;;23.07;;
21095;SDS011;10706;49.036;12.112;2024-03-02T07:00:40;70.53;;;24.07;;
21095;SDS011;10706;49.036;12.112;2024-03-02T07:03:12;61.37;;;23.17;;
21095;SDS011;10706;49.036;12.112;2024-03-02T07:05:38;65.57;;;21.97;;
21095;SDS011;10706;49.036;12.112;2024-03-02T07:08:04;70.93;;;23.90;;
21095;SDS011;10706;49.036;12.112;2024-03-02T07:10:31;66.60;;;23.97;;
21095;SDS011;10706;49.036;12.112;2024-03-02T07:12:56;65.93;;;24.33;;
21095;SDS011;10706;49.036;12.112;2024-03-02T07:15:22;65.80;;;23.53;;
21095;SDS011;10706;49.036;12.112;2024-03-02T07:17:51;71.53;;;24.63;;
21095;SDS011;10706;49.036;12.112;2024-03-02T07:20:17;61.00;;;22.17;;
21095;SDS011;10706;49.036;12.112;2024-03-02T07:22:44;62.20;;;23.17;;
21095;SDS011;10706;49.036;12.112;2024-03-02T07:25:10;74.03;;;23.03;;
21095;SDS011;10706;49.036;12.112;2024-03-02T07:27:36;65.23;;;22.60;;
21095;SDS011;10706;49.036;12.112;2024-03-02T07:30:02;61.67;;;23.33;;
21095;SDS011;10706;49.036;12.112;2024-03-02T07:32:28;63.10;;;21.90;;
21095;SDS011;10706;49.036;12.112;2024-03-02T07:34:54;65.27;;;22.57;;
21095;SDS011;10706;49.036;12.112;2024-03-02T07:37:20;58.47;;;22.37;;
21095;SDS011;10706;49.036;12.112;2024-03-02T07:39:48;69.00;;;24.00;;
21095;SDS011;10706;49.036;12.112;2024-03-02T07:42:14;61.50;;;23.70;;
21095;SDS011;10706;49.036;12.112;2024-03-02T07:44:41;65.87;;;22.80;;
21095;SDS011;10706;49.036;12.112;2024-03-02T07:47:09;70.07;;;23.33;;
21095;SDS011;10706;49.036;12.112;2024-03-02T07:49:35;77.20;;;25.53;;
21095;SDS011;10706;49.036;12.112;2024-03-02T07:52:01;63.33;;;23.03;;
21095;SDS011;10706;49.036;12.112;2024-03-02T07:54:27;76.17;;;24.27;;
21095;SDS011;10706;49.036;12.112;2024-03-02T07:56:53;73.77;;;24.60;;
21095;SDS011;10706;49.036;12.112;2024-03-02T07:59:19;69.37;;;25.17;;
21095;SDS011;10706;49.036;12.112;2024-03-02T08:01:46;68.47;;;25.20;;
21095;SDS011;10706;49.036;12.112;2024-03-02T08:04:14;74.20;;;24.87;;
21095;SDS011;10706;49.036;12.112;2024-03-02T08:06:40;83.13;;;27.10;;
21095;SDS011;10706;49.036;12.112;2024-03-02T08:09:06;72.73;;;24.43;;
21095;SDS011;10706;49.036;12.112;2024-03-02T08:11:35;70.17;;;24.77;;
21095;SDS011;10706;49.036;12.112;2024-03-02T08:14:02;75.70;;;25.77;;
21095;SDS011;10706;49.036;12.112;2024-03-02T08:16:28;76.23;;;23.93;;
21095;SDS011;10706;49.036;12.112;2024-03-02T08:18:54;72.03;;;23.60;;
21095;SDS011;10706;49.036;12.112;2024-03-02T08:21:23;73.57;;;24.40;;
21095;SDS011;10706;49.036;12.112;2024-03-02T08:23:49;76.17;;;24.53;;
21095;SDS011;10706;49.036;12.112;2024-03-02T08:26:16;66.10;;;23.90;;
21095;SDS011;10706;49.036;12.112;2024-03-02T08:28:42;60.97;;;23.00;;
21095;SDS011;10706;49.036;12.112;2024-03-02T08:31:08;64.07;;;23.53;;
21095;SDS011;10706;49.036;12.112;2024-03-02T08:33:35;65.40;;;22.80;;
21095;SDS011;10706;49.036;12.112;2024-03-02T08:36:01;58.80;;;21.53;;
21095;SDS011;10706;49.036;12.112;2024-03-02T08:38:27;61.17;;;22.63;;
21095;SDS011;10706;49.036;12.112;2024-03-02T08:40:54;59.50;;;22.53;;
21095;SDS011;10706;49.036;12.112;2024-03-02T08:43:20;55.70;;;21.70;;
21095;SDS011;10706;49.036;12.112;2024-03-02T08:45:47;64.30;;;23.27;;
21095;SDS011;10706;49.036;12.112;2024-03-02T08:48:14;61.97;;;21.70;;
21095;SDS011;10706;49.036;12.112;2024-03-02T08:50:39;55.93;;;20.57;;
21095;SDS011;10706;49.036;12.112;2024-03-02T08:53:06;56.80;;;22.23;;
21095;SDS011;10706;49.036;12.112;2024-03-02T08:55:31;54.03;;;21.13;;
21095;SDS011;10706;49.036;12.112;2024-03-02T08:57:57;54.77;;;20.27;;
21095;SDS011;10706;49.036;12.112;2024-03-02T09:00:25;53.00;;;20.20;;
21095;SDS011;10706;49.036;12.112;2024-03-02T09:02:51;50.30;;;20.67;;
21095;SDS011;10706;49.036;12.112;2024-03-02T09:05:17;56.17;;;20.40;;
21095;SDS011;10706;49.036;12.112;2024-03-02T09:07:43;48.47;;;19.57;;
21095;SDS011;10706;49.036;12.112;2024-03-02T09:10:09;49.53;;;19.93;;
21095;SDS011;10706;49.036;12.112;2024-03-02T09:12:35;54.00;;;20.20;;
21095;SDS011;10706;49.036;12.112;2024-03-02T09:15:02;50.83;;;19.83;;
21095;SDS011;10706;49.036;12.112;2024-03-02T09:17:29;50.10;;;20.00;;
21095;SDS011;10706;49.036;12.112;2024-03-02T09:19:55;46.40;;;19.93;;
21095;SDS011;10706;49.036;12.112;2024-03-02T09:22:21;50.27;;;19.83;;
21095;SDS011;10706;49.036;12.112;2024-03-02T09:24:48;51.70;;;20.53;;
21095;SDS011;10706;49.036;12.112;2024-03-02T09:27:14;45.83;;;18.17;;
21095;SDS011;10706;49.036;12.112;2024-03-02T09:29:40;42.40;;;19.57;;
21095;SDS011;10706;49.036;12.112;2024-03-02T09:32:06;48.37;;;17.83;;
21095;SDS011;10706;49.036;12.112;2024-03-02T09:34:37;51.63;;;20.13;;
21095;SDS011;10706;49.036;12.112;2024-03-02T09:37:02;49.37;;;19.83;;
21095;SDS011;10706;49.036;12.112;2024-03-02T09:39:29;41.40;;;17.73;;
21095;SDS011;10706;49.036;12.112;2024-03-02T09:41:55;52.77;;;20.67;;
21095;SDS011;10706;49.036;12.112;2024-03-02T09:44:22;46.10;;;18.90;;
21095;SDS011;10706;49.036;12.112;2024-03-02T09:46:50;46.67;;;18.27;;
21095;SDS011;10706;49.036;12.112;2024-03-02T09:49:16;44.83;;;19.27;;
21095;SDS011;10706;49.036;12.112;2024-03-02T09:51:48;49.50;;;19.27;;
21095;SDS011;10706;49.036;12.112;2024-03-02T09:54:15;44.07;;;18.07;;
21095;SDS011;10706;49.036;12.112;2024-03-02T09:56:41;46.33;;;20.83;;
21095;SDS011;10706;49.036;12.112;2024-03-02T09:59:07;48.20;;;18.67;;
21095;SDS011;10706;49.036;12.112;2024-03-02T10:01:54;49.53;;;18.03;;
21095;SDS011;10706;49.036;12.112;2024-03-02T10:04:27;47.27;;;17.40;;
21095;SDS011;10706;49.036;12.112;2024-03-02T10:07:10;45.50;;;17.67;;
21095;SDS011;10706;49.036;12.112;2024-03-02T10:09:45;43.78;;;16.65;;
21095;SDS011;10706;49.036;12.112;2024-03-02T10:12:21;36.75;;;15.82;;
21095;SDS011;10706;49.036;12.112;2024-03-02T10:15:13;42.20;;;17.50;;
21095;SDS011;10706;49.036;12.112;2024-03-02T10:18:03;40.17;;;16.80;;
21095;SDS011;10706;49.036;12.112;2024-03-02T10:20:37;41.97;;;16.80;;
21095;SDS011;10706;49.036;12.112;2024-03-02T10:23:16;42.33;;;15.97;;
21095;SDS011;10706;49.036;12.112;2024-03-02T10:26:02;43.92;;;17.65;;
21095;SDS011;10706;49.036;12.112;2024-03-02T10:28:47;40.10;;;16.98;;
21095;SDS011;10706;49.036;12.112;2024-03-02T10:31:47;40.23;;;15.83;;
21095;SDS011;10706;49.036;12.112;2024-03-02T10:34:13;42.83;;;15.65;;
21095;SDS011;10706;49.036;12.112;2024-03-02T10:36:42;38.63;;;14.80;;
21095;SDS011;10706;49.036;12.112;2024-03-02T10:39:14;99.23;;;26.10;;
21095;SDS011;10706;49.036;12.112;2024-03-02T10:41:59;34.47;;;14.93;;
21095;SDS011;10706;49.036;12.112;2024-03-02T10:44:35;35.40;;;13.83;;
21095;SDS011;10706;49.036;12.112;2024-03-02T10:47:01;33.40;;;12.95;;
21095;SDS011;10706;49.036;12.112;2024-03-02T10:49:38;34.03;;;13.53;;
21095;SDS011;10706;49.036;12.112;2024-03-02T10:52:13;35.53;;;15.10;;
21095;SDS011;10706;49.036;12.112;2024-03-02T10:54:45;34.30;;;14.63;;
21095;SDS011;10706;49.036;12.112;2024-03-02T10:57:14;34.47;;;14.43;;
21095;SDS011;10706;49.036;12.112;2024-03-02T11:00:09;41.47;;;15.63;;
21095;SDS011;10706;49.036;12.112;2024-03-02T11:02:49;36.17;;;15.77;;
21095;SDS011;10706;49.036;12.112;2024-03-02T11:05:38;36.28;;;14.52;;
21095;SDS011;10706;49.036;12.112;2024-03-02T11:08:17;34.92;;;13.50;;
21095;SDS011;10706;49.036;12.112;2024-03-02T11:13:35;36.03;;;14.23;;
21095;SDS011;10706;49.036;12.112;2024-03-02T11:16:06;35.92;;;13.75;;
21095;SDS011;10706;49.036;12.112;2024-03-02T11:18:43;36.53;;;13.80;;
21095;SDS011;10706;49.036;12.112;2024-03-02T11:21:10;39.88;;;14.18;;
21095;SDS011;10706;49.036;12.112;2024-03-02T11:23:40;36.22;;;14.40;;
21095;SDS011;10706;49.036;12.112;2024-03-02T11:26:21;37.90;;;13.68;;
21095;SDS011;10706;49.036;12.112;2024-03-02T11:28:49;34.42;;;14.00;;
21095;SDS011;10706;49.036;12.112;2024-03-02T11:31:16;33.60;;;14.57;;
21095;SDS011;10706;49.036;12.112;2024-03-02T11:51:00;31.17;;;12.70;;
21095;SDS011;10706;49.036;12.112;2024-03-02T11:53:27;30.58;;;13.07;;
21095;SDS011;10706;49.036;12.112;2024-03-02T11:55:57;34.47;;;12.60;;
21095;SDS011;10706;49.036;12.112;2024-03-02T11:58:24;31.90;;;12.70;;
21095;SDS011;10706;49.036;12.112;2024-03-02T12:00:52;29.23;;;12.88;;
21095;SDS011;10706;49.036;12.112;2024-03-02T12:03:20;31.23;;;12.82;;
21095;SDS011;10706;49.036;12.112;2024-03-02T12:05:51;29.42;;;12.40;;
21095;SDS011;10706;49.036;12.112;2024-03-02T12:08:18;27.52;;;12.43;;
21095;SDS011;10706;49.036;12.112;2024-03-02T12:10:58;30.08;;;11.20;;
21095;SDS011;10706;49.036;12.112;2024-03-02T12:13:26;27.00;;;12.02;;
21095;SDS011;10706;49.036;12.112;2024-03-02T12:15:53;30.08;;;11.98;;
21095;SDS011;10706;49.036;12.112;2024-03-02T12:18:23;27.98;;;12.20;;
21095;SDS011;10706;49.036;12.112;2024-03-02T12:20:49;30.38;;;12.40;;
21095;SDS011;10706;49.036;12.112;2024-03-02T12:23:23;29.42;;;12.60;;
21095;SDS011;10706;49.036;12.112;2024-03-02T12:25:49;30.55;;;12.00;;
21095;SDS011;10706;49.036;12.112;2024-03-02T12:28:16;27.95;;;11.57;;
21095;SDS011;10706;49.036;12.112;2024-03-02T12:30:42;26.58;;;11.50;;
21095;SDS011;10706;49.036;12.112;2024-03-02T12:33:10;27.02;;;11.80;;
21095;SDS011;10706;49.036;12.112;2024-03-02T12:35:36;27.55;;;11.65;;
21095;SDS011;10706;49.036;12.112;2024-03-02T12:38:02;26.25;;;11.68;;
21095;SDS011;10706;49.036;12.112;2024-03-02T12:40:30;26.50;;;11.00;;
21095;SDS011;10706;49.036;12.112;2024-03-02T12:42:56;26.42;;;11.68;;
21095;SDS011;10706;49.036;12.112;2024-03-02T12:45:22;27.30;;;11.50;;
21095;SDS011;10706;49.036;12.112;2024-03-02T12:47:51;28.05;;;12.20;;
21095;SDS011;10706;49.036;12.112;2024-03-02T12:50:17;28.00;;;12.10;;
21095;SDS011;10706;49.036;12.112;2024-03-02T12:52:44;29.52;;;11.73;;
21095;SDS011;10706;49.036;12.112;2024-03-02T12:55:17;27.88;;;11.57;;
21095;SDS011;10706;49.036;12.112;2024-03-02T12:57:45;24.98;;;10.35;;
21095;SDS011;10706;49.036;12.112;2024-03-02T13:00:11;25.92;;;10.55;;
21095;SDS011;10706;49.036;12.112;2024-03-02T13:02:39;26.67;;;11.32;;
21095;SDS011;10706;49.036;12.112;2024-03-02T13:05:07;29.17;;;12.35;;
21095;SDS011;10706;49.036;12.112;2024-03-02T13:07:36;25.58;;;11.15;;
21095;SDS011;10706;49.036;12.112;2024-03-02T13:10:03;30.98;;;11.82;;
21095;SDS011;10706;49.036;12.112;2024-03-02T13:12:31;27.83;;;11.38;;
21095;SDS011;10706;49.036;12.112;2024-03-02T13:14:57;28.15;;;11.73;;
21095;SDS011;10706;49.036;12.112;2024-03-02T13:17:27;27.67;;;11.30;;
21095;SDS011;10706;49.036;12.112;2024-03-02T13:26:10;26.23;;;11.00;;
21095;SDS011;10706;49.036;12.112;2024-03-02T13:46:43;30.65;;;12.13;;
21095;SDS011;10706;49.036;12.112;2024-03-02T13:49:10;31.00;;;11.63;;
21095;SDS011;10706;49.036;12.112;2024-03-02T13:51:37;26.73;;;11.00;;
21095;SDS011;10706;49.036;12.112;2024-03-02T13:54:03;26.13;;;10.68;;
21095;SDS011;10706;49.036;12.112;2024-03-02T13:56:29;27.85;;;10.15;;
21095;SDS011;10706;49.036;12.112;2024-03-02T13:58:55;27.17;;;10.88;;
21095;SDS011;10706;49.036;12.112;2024-03-02T14:01:21;31.98;;;11.38;;
21095;SDS011;10706;49.036;12.112;2024-03-02T14:03:47;28.13;;;11.07;;
21095;SDS011;10706;49.036;12.112;2024-03-02T14:06:13;27.25;;;11.50;;
21095;SDS011;10706;49.036;12.112;2024-03-02T14:08:39;27.75;;;11.32;;
21095;SDS011;10706;49.036;12.112;2024-03-02T14:11:04;27.33;;;11.30;;
21095;SDS011;10706;49.036;12.112;2024-03-02T14:13:30;24.80;;;10.52;;
21095;SDS011;10706;49.036;12.112;2024-03-02T14:15:56;24.75;;;11.00;;
21095;SDS011;10706;49.036;12.112;2024-03-02T14:18:23;30.27;;;11.73;;
21095;SDS011;10706;49.036;12.112;2024-03-02T14:20:49;25.95;;;9.40;;
21095;SDS011;10706;49.036;12.112;2024-03-02T14:23:17;28.80;;;11.02;;
21095;SDS011;10706;49.036;12.112;2024-03-02T14:25:45;27.25;;;11.45;;
21095;SDS011;10706;49.036;12.112;2024-03-02T14:28:11;24.17;;;11.25;;
21095;SDS011;10706;49.036;12.112;2024-03-02T14:30:37;25.50;;;10.20;;
21095;SDS011;10706;49.036;12.112;2024-03-02T14:33:03;22.17;;;9.32;;
21095;SDS011;10706;49.036;12.112;2024-03-02T14:35:29;25.23;;;10.43;;
21095;SDS011;10706;49.036;12.112;2024-03-02T14:37:55;23.35;;;10.68;;
21095;SDS011;10706;49.036;12.112;2024-03-02T14:40:23;25.58;;;10.57;;
21095;SDS011;10706;49.036;12.112;2024-03-02T14:42:52;27.63;;;10.15;;
21095;SDS011;10706;49.036;12.112;2024-03-02T14:45:19;24.67;;;9.98;;
21095;SDS011;10706;49.036;12.112;2024-03-02T14:47:48;25.40;;;9.73;;
21095;SDS011;10706;49.036;12.112;2024-03-02T14:50:15;25.38;;;9.88;;
21095;SDS011;10706;49.036;12.112;2024-03-02T14:52:41;25.95;;;10.18;;
21095;SDS011;10706;49.036;12.112;2024-03-02T14:55:08;26.70;;;10.43;;
21095;SDS011;10706;49.036;12.112;2024-03-02T14:57:34;26.45;;;9.70;;
21095;SDS011;10706;49.036;12.112;2024-03-02T15:00:00;22.52;;;10.30;;
21095;SDS011;10706;49.036;12.112;2024-03-02T15:02:26;23.10;;;9.02;;
21095;SDS011;10706;49.036;12.112;2024-03-02T15:04:53;21.23;;;9.15;;